Time;durP1;ratioP1;P1;durP2;ratioP2;P2;SDS_P1;SDS_P2;PMS_P1;PMS_P2;Temp;Humidity;BMP_temperature;BMP_pressure;BME280_temperature;BME280_humidity;BME280_pressure;Samples;Min_cycle;Max_cycle;Signal;HPM_P1;HPM_P2
2023/02/03 11:04:37;;;;;;;2.30;1.40;;;;;;;8.37;90.36;99633.91;5171878;27;20548;-86
2023/02/03 11:07:07;;;;;;;1.83;1.30;;;;;;;8.85;87.65;99625.69;5136573;27;38769;-84
2023/02/03 11:09:37;;;;;;;2.13;1.40;;;;;;;9.20;83.86;99600.34;5136429;27;40861;-86
2023/02/03 11:12:13;;;;;;;2.63;1.20;;;;;;;9.61;81.87;99611.69;5136195;27;41759;-87
2023/02/03 11:14:43;;;;;;;3.27;1.30;;;;;;;9.77;80.18;99605.69;5153810;27;42377;-84
2023/02/03 11:17:17;;;;;;;2.13;1.10;;;;;;;10.12;78.63;99620.75;5136376;27;38790;-88
2023/02/03 11:19:48;;;;;;;2.27;1.20;;;;;;;10.31;77.41;99629.50;5153030;27;41728;-85
2023/02/03 11:22:28;;;;;;;1.40;1.30;;;;;;;10.50;76.81;99624.19;5153311;27;43279;-87
2023/02/03 11:24:57;;;;;;;1.87;1.37;;;;;;;10.24;75.70;99569.03;5135903;27;44114;-85
2023/02/03 11:27:30;;;;;;;2.00;1.23;;;;;;;10.47;74.75;99612.88;5135967;27;40297;-86
2023/02/03 11:30:14;;;;;;;3.03;1.80;;;;;;;10.53;74.05;99624.00;5136411;27;41089;-84
2023/02/03 11:32:43;;;;;;;3.37;1.40;;;;;;;10.53;74.42;99607.25;5135918;27;43140;-86
2023/02/03 11:35:18;;;;;;;4.77;1.63;;;;;;;10.67;74.29;99621.53;5153336;27;41170;-84
2023/02/03 11:37:48;;;;;;;2.30;1.37;;;;;;;10.57;73.33;99630.00;5136456;27;39247;-86
2023/02/03 11:40:37;;;;;;;3.20;1.80;;;;;;;10.65;73.63;99643.72;5136011;27;40540;-87
2023/02/03 11:43:14;;;;;;;3.57;1.40;;;;;;;10.70;73.51;99633.75;5135246;27;42095;-84
2023/02/03 11:45:45;;;;;;;1.83;1.60;;;;;;;10.72;73.75;99621.31;5153537;27;41645;-85
2023/02/03 11:48:25;;;;;;;2.80;1.33;;;;;;;10.68;73.20;99638.28;5153069;27;39143;-85
2023/02/03 11:51:02;;;;;;;2.97;1.23;;;;;;;10.67;72.79;99645.38;5136314;27;41938;-84
2023/02/03 11:53:37;;;;;;;1.43;1.00;;;;;;;10.62;72.79;99638.59;5152966;27;41988;-85
2023/02/03 11:56:20;;;;;;;2.57;1.20;;;;;;;10.53;73.00;99600.16;5152974;27;43481;-84
2023/02/03 11:59:18;;;;;;;1.40;1.07;;;;;;;10.69;72.88;99598.47;5136022;27;40084;-85
2023/02/03 12:02:02;;;;;;;1.37;1.17;;;;;;;10.51;72.21;99550.88;5135814;27;41678;-88
2023/02/03 12:05:04;;;;;;;1.83;1.10;;;;;;;10.91;71.29;99610.59;5152685;27;42900;-85
2023/02/03 12:07:49;;;;;;;2.90;0.77;;;;;;;10.75;72.13;99582.28;5133429;27;41102;-85
2023/02/03 12:10:31;;;;;;;1.60;1.23;;;;;;;10.77;72.20;99579.50;5136714;27;39074;-84
2023/02/03 12:13:11;;;;;;;2.93;1.03;;;;;;;10.73;71.90;99588.56;5136900;27;40359;-85
2023/02/03 12:15:57;;;;;;;7.23;1.40;;;;;;;10.75;71.93;99565.53;5156311;27;42277;-85
2023/02/03 12:18:41;;;;;;;1.00;0.90;;;;;;;10.87;71.71;99564.03;5137190;27;42220;-85
2023/02/03 12:21:29;;;;;;;2.93;1.03;;;;;;;10.89;70.83;99575.38;5155847;27;39131;-85
2023/02/03 12:24:08;;;;;;;3.17;1.13;;;;;;;10.68;71.62;99540.25;5156499;27;41926;-84
2023/02/03 12:26:47;;;;;;;1.23;1.10;;;;;;;10.70;71.50;99538.41;5122946;27;42979;-85
2023/02/03 12:29:18;;;;;;;2.60;1.10;;;;;;;10.84;71.75;99550.94;5121661;27;41742;-86
2023/02/03 12:31:55;;;;;;;3.37;1.00;;;;;;;10.50;71.63;99499.72;5139747;27;39066;-84
2023/02/03 12:34:29;;;;;;;1.87;0.90;;;;;;;10.73;72.58;99532.94;5121967;27;40641;-85
2023/02/03 12:37:02;;;;;;;1.70;0.90;;;;;;;10.50;72.00;99518.25;5122000;27;42208;-85
2023/02/03 12:39:36;;;;;;;1.17;0.90;;;;;;;10.71;72.32;99540.97;5121321;27;41857;-85
2023/02/03 12:42:13;;;;;;;0.90;0.77;;;;;;;10.54;72.88;99526.88;5138274;27;40016;-85
2023/02/03 12:44:47;;;;;;;2.93;1.00;;;;;;;10.70;72.73;99533.09;5121214;27;41610;-84
2023/02/03 12:47:23;;;;;;;1.70;0.80;;;;;;;10.84;72.63;99533.22;5120953;27;44741;-87
2023/02/03 12:49:56;;;;;;;1.53;0.73;;;;;;;10.66;73.12;99527.09;5121135;27;40854;-86
2023/02/03 12:52:31;;;;;;;1.30;0.80;;;;;;;10.54;73.13;99548.91;5121109;27;39506;-87
2023/02/03 12:55:15;;;;;;;1.00;0.87;;;;;;;10.62;73.54;99567.09;5121262;27;41847;-85
2023/02/03 12:57:53;;;;;;;1.27;0.87;;;;;;;10.52;74.37;99552.56;5121267;27;41706;-87
2023/02/03 13:00:34;;;;;;;1.03;0.80;;;;;;;10.46;75.51;99526.41;5121169;27;42588;-86
2023/02/03 13:03:18;;;;;;;1.80;0.83;;;;;;;10.38;76.11;99551.50;5120624;27;40207;-90
2023/02/03 13:05:52;;;;;;;0.90;0.90;;;;;;;10.41;76.85;99569.00;5121161;27;41155;-88
2023/02/03 13:08:30;;;;;;;0.80;0.80;;;;;;;10.43;76.71;99561.84;5136815;27;43731;-87
2023/02/03 13:11:10;;;;;;;1.17;0.73;;;;;;;10.11;77.29;99515.81;5137922;27;43887;-86
2023/02/03 13:13:47;;;;;;;2.13;0.67;;;;;;;10.39;77.85;99547.91;5137667;27;39948;-86
2023/02/03 13:16:18;;;;;;;0.80;0.80;;;;;;;10.23;78.58;99509.06;5121053;27;43416;-84
2023/02/03 13:18:53;;;;;;;1.07;0.60;;;;;;;10.13;78.87;99503.34;5137542;27;43883;-85
2023/02/03 13:21:22;;;;;;;1.73;1.10;;;;;;;10.16;78.82;99516.41;5120694;27;41443;-84
2023/02/03 13:23:50;;;;;;;1.03;0.93;;;;;;;10.04;80.03;99501.16;5120248;27;38635;-85
2023/02/03 13:26:41;;;;;;;1.93;1.00;;;;;;;10.03;79.61;99462.38;5136531;27;41413;-88
2023/02/03 13:29:28;;;;;;;2.13;0.80;;;;;;;10.02;79.75;99463.31;5119896;27;43095;-87
2023/02/03 13:32:11;;;;;;;1.47;0.87;;;;;;;10.22;79.35;99497.63;5137515;27;41164;-88
2023/02/03 13:35:03;;;;;;;0.80;0.80;;;;;;;10.28;79.61;99507.88;5120929;27;39477;-88
2023/02/03 13:37:49;;;;;;;0.80;0.80;;;;;;;10.34;79.54;99502.28;5120300;27;41654;-90
2023/02/03 13:40:29;;;;;;;0.60;0.60;;;;;;;10.39;79.92;99509.97;5120127;27;41775;-87
2023/02/03 13:43:05;;;;;;;0.67;0.67;;;;;;;10.12;80.28;99467.22;5120092;27;42314;-86
2023/02/03 13:45:39;;;;;;;1.17;0.80;;;;;;;10.37;80.64;99488.91;5120702;27;38994;-86
2023/02/03 13:48:13;;;;;;;2.20;0.80;;;;;;;10.28;80.53;99465.53;5137541;27;41699;-84
2023/02/03 13:50:41;;;;;;;1.33;0.70;;;;;;;10.24;80.46;99455.19;5120213;27;41748;-88
2023/02/03 13:53:18;;;;;;;1.53;0.80;;;;;;;10.30;80.79;99474.25;5136882;27;42794;-87
2023/02/03 13:55:53;;;;;;;0.70;0.70;;;;;;;10.17;81.47;99470.47;5120436;27;39001;-85
